Time;durP1;ratioP1;P1;durP2;ratioP2;P2;SDS_P1;SDS_P2;PMS_P1;PMS_P2;Temp;Humidity;BMP_temperature;BMP_pressure;BME280_temperature;BME280_humidity;BME280_pressure;Samples;Min_cycle;Max_cycle;Signal;HPM_P1;HPM_P2
2022/06/01 00:00:08;;;;;;;3.28;2.95;;;18.50;78.90;;;;;;5035452;28;20566;-59
2022/06/01 00:02:34;;;;;;;3.00;2.70;;;18.50;79.00;;;;;;5034585;28;20028;-59
2022/06/01 00:05:00;;;;;;;3.55;2.88;;;18.40;78.80;;;;;;5035035;28;20038;-59
2022/06/01 00:07:25;;;;;;;3.80;3.40;;;18.40;78.80;;;;;;5024501;28;20493;-59
2022/06/01 00:09:53;;;;;;;3.40;3.10;;;18.40;78.90;;;;;;5034953;28;20386;-59
2022/06/01 00:12:19;;;;;;;3.40;3.10;;;18.40;79.00;;;;;;5034023;28;20179;-59
2022/06/01 00:14:44;;;;;;;3.40;3.10;;;18.40;78.90;;;;;;5035040;28;20112;-59
2022/06/01 00:17:10;;;;;;;4.63;2.90;;;18.30;79.00;;;;;;5042236;28;20032;-60
2022/06/01 00:19:37;;;;;;;3.55;3.05;;;18.30;79.00;;;;;;5035893;28;20018;-61
2022/06/01 00:22:11;;;;;;;3.25;2.95;;;18.30;79.60;;;;;;5034801;28;20112;-60
2022/06/01 00:24:38;;;;;;;3.40;3.10;;;18.30;79.10;;;;;;5023814;28;20032;-61
2022/06/01 00:27:08;;;;;;;3.40;3.10;;;18.30;79.20;;;;;;5027540;28;20018;-60
2022/06/01 00:29:34;;;;;;;3.10;2.80;;;18.30;79.30;;;;;;5029565;28;20022;-61
2022/06/01 00:31:59;;;;;;;3.35;3.00;;;18.30;79.20;;;;;;5032884;28;20152;-60
2022/06/01 00:34:26;;;;;;;3.20;2.90;;;18.30;79.10;;;;;;5035086;28;20025;-61
2022/06/01 00:36:51;;;;;;;3.15;2.88;;;18.30;79.10;;;;;;5034114;28;20033;-60
2022/06/01 00:39:18;;;;;;;3.28;2.97;;;18.30;79.90;;;;;;5033459;28;20025;-60
2022/06/01 00:41:44;;;;;;;3.15;2.85;;;18.30;79.40;;;;;;5033665;28;20440;-60
2022/06/01 00:44:09;;;;;;;3.30;3.00;;;18.20;79.40;;;;;;5034300;28;20034;-61
2022/06/01 00:46:35;;;;;;;3.70;3.20;;;18.20;79.50;;;;;;5034341;28;20104;-60
2022/06/01 00:49:13;;;;;;;3.10;2.78;;;18.20;79.70;;;;;;5033775;28;20022;-60
2022/06/01 00:51:40;;;;;;;3.08;2.78;;;18.20;79.60;;;;;;5034245;28;20029;-61
2022/06/01 00:54:06;;;;;;;3.72;3.22;;;18.20;80.00;;;;;;5032849;28;20033;-60
2022/06/01 00:56:36;;;;;;;3.65;3.35;;;18.10;79.80;;;;;;5034117;28;20076;-60
2022/06/01 00:59:05;;;;;;;3.47;3.17;;;18.10;79.90;;;;;;5033609;28;20033;-60
2022/06/01 01:01:31;;;;;;;3.03;2.80;;;18.10;80.00;;;;;;5034206;28;20432;-60
2022/06/01 01:04:00;;;;;;;3.40;3.10;;;18.10;80.00;;;;;;5033454;28;20086;-60
2022/06/01 01:06:28;;;;;;;3.40;3.10;;;18.10;80.10;;;;;;5033555;28;20025;-61
2022/06/01 01:08:55;;;;;;;3.58;3.15;;;18.10;80.10;;;;;;5032176;28;20033;-60
2022/06/01 01:11:36;;;;;;;3.47;3.17;;;18.10;80.10;;;;;;5033597;28;20071;-60
2022/06/01 01:14:07;;;;;;;3.30;2.95;;;18.10;80.10;;;;;;5031427;28;20030;-60
2022/06/01 01:16:34;;;;;;;3.30;3.00;;;18.10;80.10;;;;;;5033627;28;20026;-60
2022/06/01 01:19:00;;;;;;;3.47;3.17;;;18.10;80.00;;;;;;5033845;28;20040;-60
2022/06/01 01:21:48;;;;;;;3.55;3.25;;;18.10;80.00;;;;;;5023195;28;20018;-60
2022/06/01 01:24:25;;;;;;;3.15;2.85;;;18.00;79.90;;;;;;5036799;28;20159;-60
2022/06/01 01:26:52;;;;;;;3.92;3.00;;;18.00;80.10;;;;;;5031374;28;20017;-60
2022/06/01 01:29:51;;;;;;;3.25;2.95;;;18.00;80.00;;;;;;5032184;28;20306;-60
2022/06/01 01:32:17;;;;;;;4.35;3.10;;;18.00;79.80;;;;;;5030246;28;20044;-60
2022/06/01 01:34:44;;;;;;;3.08;2.88;;;18.00;80.00;;;;;;5033810;28;20026;-60
2022/06/01 01:37:18;;;;;;;3.35;3.03;;;18.00;80.00;;;;;;5033478;28;20039;-60
2022/06/01 01:39:44;;;;;;;3.55;3.25;;;18.00;80.10;;;;;;5032696;28;20140;-60
2022/06/01 01:42:10;;;;;;;3.33;3.05;;;18.00;80.10;;;;;;5026500;28;20056;-60
2022/06/01 01:44:45;;;;;;;4.65;3.20;;;18.00;80.10;;;;;;5032860;28;20029;-60
2022/06/01 01:47:11;;;;;;;3.75;2.90;;;18.00;80.10;;;;;;5028705;28;20481;-61
2022/06/01 01:49:38;;;;;;;3.33;3.03;;;18.00;80.10;;;;;;5031903;28;20029;-60
2022/06/01 01:52:14;;;;;;;3.28;3.00;;;18.00;80.20;;;;;;5032166;28;20014;-61
2022/06/01 01:54:52;;;;;;;2.95;2.67;;;17.90;80.20;;;;;;5033478;28;20036;-60
2022/06/01 01:57:48;;;;;;;2.95;2.75;;;18.00;80.20;;;;;;5032719;28;20021;-60
2022/06/01 02:00:34;;;;;;;2.95;2.75;;;17.90;80.00;;;;;;5031546;28;20051;-60
2022/06/01 02:03:25;;;;;;;3.97;2.90;;;17.90;80.00;;;;;;5032537;28;20088;-60
2022/06/01 02:06:23;;;;;;;3.07;2.77;;;17.90;80.10;;;;;;5027412;28;20045;-60
2022/06/01 02:08:59;;;;;;;2.88;2.67;;;17.90;80.00;;;;;;5030331;28;20281;-60
2022/06/01 02:14:28;;;;;;;2.83;2.63;;;17.90;80.20;;;;;;5031817;28;20036;-60
2022/06/01 02:17:06;;;;;;;3.03;2.80;;;17.90;80.20;;;;;;5032267;28;20469;-60
2022/06/01 02:19:49;;;;;;;3.20;2.92;;;17.90;80.20;;;;;;5032445;28;20022;-61
2022/06/01 02:22:15;;;;;;;3.30;3.00;;;17.90;80.20;;;;;;5031513;28;20025;-60
2022/06/01 02:24:42;;;;;;;3.42;3.13;;;17.90;80.30;;;;;;5032555;28;20021;-60
2022/06/01 02:27:11;;;;;;;3.58;3.10;;;17.90;80.30;;;;;;5032536;28;20029;-60
2022/06/01 02:30:07;;;;;;;2.85;2.65;;;18.00;80.40;;;;;;5032305;28;20049;-60
2022/06/01 02:32:34;;;;;;;2.90;2.70;;;18.00;80.30;;;;;;5032429;28;20026;-60
2022/06/01 02:35:03;;;;;;;3.47;3.10;;;18.00;80.40;;;;;;5023271;28;20096;-60
2022/06/01 02:37:30;;;;;;;3.00;2.78;;;18.00;80.50;;;;;;5032310;28;20275;-60
2022/06/01 02:39:58;;;;;;;3.35;3.05;;;18.00;80.40;;;;;;5026448;28;20064;-60
2022/06/01 02:42:28;;;;;;;3.30;3.00;;;18.00;80.50;;;;;;5031690;28;20140;-60
2022/06/01 02:45:14;;;;;;;3.42;3.13;;;18.10;80.50;;;;;;5032543;28;20018;-60
2022/06/01 02:47:44;;;;;;;3.20;2.90;;;18.10;80.20;;;;;;5031730;28;20397;-60
2022/06/01 02:50:16;;;;;;;3.40;3.10;;;18.10;80.30;;;;;;5031253;28;20026;-60
2022/06/01 02:52:43;;;;;;;3.47;3.17;;;18.10;80.20;;;;;;5032377;28;20049;-60
2022/06/01 02:55:10;;;;;;;3.00;2.75;;;18.20;80.30;;;;;;5032527;28;20439;-60
2022/06/01 02:57:43;;;;;;;3.22;2.80;;;18.20;80.00;;;;;;5031250;28;20098;-60
2022/06/01 03:00:18;;;;;;;3.33;3.03;;;18.20;79.90;;;;;;5034705;28;20021;-60
2022/06/01 03:02:51;;;;;;;3.35;3.05;;;18.30;79.60;;;;;;5036263;28;20096;-60
2022/06/01 03:05:18;;;;;;;3.25;2.95;;;18.30;79.60;;;;;;5036327;28;20499;-60
2022/06/01 03:07:44;;;;;;;3.45;3.15;;;18.40;79.60;;;;;;5036161;28;20413;-60
2022/06/01 03:10:10;;;;;;;3.13;2.90;;;18.40;79.50;;;;;;5032717;28;20021;-60
2022/06/01 03:12:39;;;;;;;3.25;2.97;;;18.40;79.30;;;;;;5036256;28;20026;-60
2022/06/01 03:15:07;;;;;;;3.30;3.00;;;18.50;79.10;;;;;;5035266;28;20566;-60
2022/06/01 03:17:33;;;;;;;3.45;3.15;;;18.60;79.10;;;;;;5035927;28;20026;-60
2022/06/01 03:20:00;;;;;;;3.38;3.08;;;18.60;79.20;;;;;;5036084;28;20025;-60
2022/06/01 03:22:26;;;;;;;3.92;3.30;;;18.70;79.30;;;;;;5035763;28;20014;-60
2022/06/01 03:24:51;;;;;;;2.97;2.70;;;18.80;79.10;;;;;;5035858;28;20109;-60
2022/06/01 03:27:17;;;;;;;3.38;2.60;;;18.90;79.00;;;;;;5035793;28;20489;-60
2022/06/01 03:29:45;;;;;;;3.13;2.80;;;19.10;79.60;;;;;;5033966;28;20032;-60
2022/06/01 03:32:11;;;;;;;3.33;3.03;;;19.30;80.60;;;;;;5030165;28;20021;-60
2022/06/01 03:34:37;;;;;;;3.22;2.95;;;19.60;80.80;;;;;;5035541;28;20025;-60
2022/06/01 03:37:03;;;;;;;2.90;2.70;;;20.00;80.70;;;;;;5035580;28;20022;-60
2022/06/01 03:39:29;;;;;;;2.58;2.38;;;20.40;80.30;;;;;;5034233;28;20091;-60
2022/06/01 03:41:55;;;;;;;3.78;2.67;;;20.90;80.10;;;;;;5035310;28;20036;-59
2022/06/01 03:47:10;;;;;;;2.40;2.20;;;22.30;77.90;;;;;;5035124;28;20075;-59
2022/06/01 03:49:37;;;;;;;2.70;2.50;;;23.30;75.90;;;;;;5035582;28;20014;-60
2022/06/01 03:52:04;;;;;;;2.40;2.20;;;24.30;73.70;;;;;;5032623;28;20060;-59
2022/06/01 03:54:30;;;;;;;2.95;2.65;;;25.10;71.60;;;;;;5033638;28;20037;-60
2022/06/01 03:56:56;;;;;;;2.20;2.10;;;26.00;69.70;;;;;;5033350;28;20029;-59
2022/06/01 03:59:22;;;;;;;2.17;1.98;;;26.70;67.80;;;;;;5032426;28;20041;-59
2022/06/01 04:01:48;;;;;;;2.53;2.33;;;27.40;66.10;;;;;;5033407;28;20026;-60
2022/06/01 04:04:13;;;;;;;2.42;2.22;;;28.10;64.60;;;;;;5030248;28;20371;-60
2022/06/01 04:06:39;;;;;;;2.85;2.55;;;28.70;63.10;;;;;;5028084;28;20443;-59
2022/06/01 04:09:05;;;;;;;2.65;2.45;;;29.20;62.00;;;;;;5032017;28;20028;-58
2022/06/01 04:11:30;;;;;;;2.35;2.15;;;29.80;60.70;;;;;;5033936;28;20091;-58
2022/06/01 04:13:56;;;;;;;2.22;2.03;;;30.30;59.70;;;;;;5034852;28;20029;-58
2022/06/01 04:16:22;;;;;;;2.15;2.05;;;30.90;58.90;;;;;;5034336;28;20068;-58
2022/06/01 04:18:48;;;;;;;2.50;2.30;;;31.40;58.00;;;;;;5033700;28;20029;-58
2022/06/01 04:21:18;;;;;;;2.22;2.03;;;31.90;56.90;;;;;;5033367;28;20029;-58
2022/06/01 04:23:44;;;;;;;1.95;1.85;;;32.40;56.20;;;;;;5033973;28;20057;-58
2022/06/01 04:26:10;;;;;;;2.05;1.95;;;32.80;55.60;;;;;;5034165;28;20030;-59
2022/06/01 04:28:35;;;;;;;2.95;2.22;;;33.20;54.90;;;;;;5030617;28;20021;-58
2022/06/01 04:31:01;;;;;;;2.15;2.00;;;33.60;54.30;;;;;;5032302;28;20056;-59
2022/06/01 04:33:27;;;;;;;2.13;1.98;;;33.90;53.60;;;;;;5034373;28;20480;-60
2022/06/01 04:35:53;;;;;;;2.28;2.05;;;34.20;53.00;;;;;;5042238;28;20028;-58
2022/06/01 04:38:19;;;;;;;2.00;1.90;;;34.50;52.50;;;;;;5029754;28;20429;-59
2022/06/01 04:40:48;;;;;;;2.10;2.00;;;34.90;52.00;;;;;;5034341;28;20030;-59
2022/06/01 04:43:17;;;;;;;2.17;1.97;;;35.20;51.90;;;;;;5034340;28;20038;-59
2022/06/01 04:45:43;;;;;;;1.95;1.85;;;35.40;50.80;;;;;;5034446;28;20483;-59
2022/06/01 04:48:10;;;;;;;2.10;1.95;;;35.70;50.60;;;;;;5034102;28;20033;-59
2022/06/01 04:50:42;;;;;;;2.30;2.10;;;35.80;50.00;;;;;;5033697;28;20013;-59
2022/06/01 04:53:11;;;;;;;1.98;1.85;;;36.00;49.60;;;;;;5034281;28;20535;-59
2022/06/01 04:55:37;;;;;;;;;;;36.30;49.40;;;;;;5033417;28;20022;-59
2022/06/01 04:58:02;;;;;;;2.08;1.98;;;36.30;48.60;;;;;;5034022;28;19955;-59
2022/06/01 05:00:28;;;;;;;2.30;2.10;;;36.50;49.50;;;;;;5034091;28;20095;-59
2022/06/01 05:02:53;;;;;;;2.17;1.90;;;36.60;48.90;;;;;;5033948;28;20033;-59
2022/06/01 05:05:19;;;;;;;2.00;1.90;;;36.70;48.60;;;;;;5033808;28;20057;-58
2022/06/01 05:07:45;;;;;;;2.10;1.92;;;36.80;48.30;;;;;;5031909;28;20022;-59
2022/06/01 05:10:10;;;;;;;2.35;2.10;;;36.80;47.90;;;;;;5031278;28;20036;-64
2022/06/01 05:12:36;;;;;;;2.08;1.98;;;36.90;47.60;;;;;;5021905;28;20053;-64
2022/06/01 05:15:02;;;;;;;1.98;1.88;;;36.80;47.00;;;;;;5028627;28;20022;-64
2022/06/01 05:17:30;;;;;;;2.10;1.98;;;36.90;46.40;;;;;;5030926;28;20030;-64
2022/06/01 05:19:56;;;;;;;2.13;1.85;;;36.80;45.50;;;;;;5021461;28;20080;-64
2022/06/01 05:22:21;;;;;;;3.10;2.80;;;36.50;45.10;;;;;;5020561;28;20033;-64
2022/06/01 05:24:47;;;;;;;2.47;2.28;;;36.00;44.80;;;;;;5025667;28;20025;-64
2022/06/01 05:27:13;;;;;;;2.53;2.33;;;35.30;45.10;;;;;;5020871;28;20032;-64
2022/06/01 05:29:38;;;;;;;2.20;2.10;;;34.30;45.50;;;;;;5021832;28;20859;-64
2022/06/01 05:32:04;;;;;;;2.97;2.20;;;33.30;46.30;;;;;;5023065;28;20030;-64
2022/06/01 05:34:30;;;;;;;2.75;2.55;;;32.30;47.00;;;;;;5019247;28;20037;-64
2022/06/01 05:36:55;;;;;;;2.80;2.60;;;31.40;47.80;;;;;;5025122;28;20030;-64
2022/06/01 05:39:21;;;;;;;2.88;2.58;;;30.50;48.80;;;;;;5024151;28;20024;-64
2022/06/01 05:41:47;;;;;;;2.63;2.38;;;29.70;49.60;;;;;;5017755;28;20026;-64
2022/06/01 05:44:13;;;;;;;2.70;2.50;;;29.10;50.30;;;;;;5022093;28;20053;-64
2022/06/01 05:46:39;;;;;;;2.70;2.50;;;28.50;50.90;;;;;;5020914;28;20056;-64
2022/06/01 05:49:05;;;;;;;2.78;2.58;;;28.00;51.60;;;;;;5016924;28;20363;-64
2022/06/01 05:51:31;;;;;;;3.38;3.00;;;27.60;52.20;;;;;;5019801;28;20026;-64
2022/06/01 05:53:57;;;;;;;2.92;2.65;;;27.30;52.80;;;;;;5015007;28;20516;-64
2022/06/01 05:56:23;;;;;;;3.20;2.88;;;26.90;53.20;;;;;;5016865;28;20493;-63
2022/06/01 05:58:50;;;;;;;3.58;3.10;;;26.60;53.60;;;;;;5015654;28;20068;-64
2022/06/01 06:01:17;;;;;;;3.40;3.10;;;26.30;54.00;;;;;;5012757;28;20030;-63
2022/06/01 06:03:43;;;;;;;3.50;3.20;;;26.10;54.50;;;;;;5016592;28;20029;-64
2022/06/01 06:06:11;;;;;;;3.38;3.08;;;25.90;54.90;;;;;;5019277;28;20033;-63
2022/06/01 06:08:39;;;;;;;3.80;3.00;;;25.80;55.30;;;;;;5016035;28;20632;-63
2022/06/01 06:11:06;;;;;;;3.30;3.00;;;25.60;55.80;;;;;;5021242;28;20025;-63
2022/06/01 06:13:36;;;;;;;3.03;2.80;;;25.40;56.00;;;;;;5019449;28;20120;-63
2022/06/01 06:16:03;;;;;;;3.20;2.90;;;25.30;56.40;;;;;;5015533;28;20030;-63
2022/06/01 06:18:29;;;;;;;3.40;3.10;;;25.20;56.70;;;;;;5018190;28;20041;-64
2022/06/01 06:20:55;;;;;;;3.17;2.88;;;25.10;57.00;;;;;;5027944;28;20672;-63
2022/06/01 06:23:21;;;;;;;2.92;2.70;;;25.00;57.30;;;;;;5023717;28;20022;-64
2022/06/01 06:25:46;;;;;;;3.75;2.80;;;24.90;57.70;;;;;;5014903;28;20513;-64
2022/06/01 06:28:12;;;;;;;4.82;3.28;;;24.80;57.90;;;;;;5023579;28;20065;-64
2022/06/01 06:30:39;;;;;;;3.53;3.10;;;24.80;58.20;;;;;;5026443;28;20021;-64
2022/06/01 06:33:05;;;;;;;3.35;3.03;;;24.70;58.40;;;;;;5015654;28;20018;-64
2022/06/01 06:35:31;;;;;;;3.80;3.15;;;24.70;58.60;;;;;;5018348;28;20032;-64
2022/06/01 06:37:58;;;;;;;3.40;3.10;;;24.60;58.90;;;;;;5004286;28;20060;-64
2022/06/01 06:40:25;;;;;;;3.20;2.90;;;24.60;59.10;;;;;;5016062;28;20037;-64
2022/06/01 06:42:52;;;;;;;3.22;2.92;;;24.60;59.40;;;;;;5015085;28;20548;-63
2022/06/01 06:45:20;;;;;;;4.53;3.30;;;24.60;59.50;;;;;;5013118;28;21037;-63
2022/06/01 06:47:46;;;;;;;3.50;3.20;;;24.50;59.60;;;;;;5023451;28;20536;-63
2022/06/01 06:50:15;;;;;;;3.55;3.25;;;24.50;59.80;;;;;;5017313;28;20032;-63
2022/06/01 06:52:40;;;;;;;3.63;3.33;;;24.50;60.10;;;;;;5014877;28;20076;-63
2022/06/01 06:55:07;;;;;;;3.47;2.90;;;24.50;60.10;;;;;;5004499;28;20026;-63
2022/06/01 06:57:33;;;;;;;3.35;3.05;;;24.50;60.30;;;;;;5011384;28;20033;-63
2022/06/01 06:59:59;;;;;;;3.97;3.08;;;24.50;60.40;;;;;;5008717;28;20033;-62
2022/06/01 07:02:25;;;;;;;3.15;2.95;;;24.50;60.60;;;;;;5007821;28;20661;-63
2022/06/01 07:04:51;;;;;;;6.13;3.60;;;24.40;60.60;;;;;;5007824;28;20033;-64
2022/06/01 07:07:17;;;;;;;4.00;3.60;;;24.40;60.90;;;;;;5005714;28;20773;-64
2022/06/01 07:09:42;;;;;;;4.28;2.70;;;24.40;60.90;;;;;;5012581;28;20037;-64
2022/06/01 07:12:10;;;;;;;3.60;3.30;;;24.40;61.20;;;;;;5010826;28;20030;-64
2022/06/01 07:14:36;;;;;;;3.60;3.30;;;24.40;61.30;;;;;;5005871;28;20116;-64
2022/06/01 07:17:03;;;;;;;3.90;3.08;;;24.40;61.50;;;;;;5005083;28;20497;-64
2022/06/01 07:19:29;;;;;;;3.45;3.15;;;24.40;61.50;;;;;;5012321;28;20378;-64
2022/06/01 07:21:55;;;;;;;4.10;3.35;;;24.40;61.90;;;;;;5009090;28;20119;-64
2022/06/01 07:24:21;;;;;;;3.55;3.25;;;24.40;62.00;;;;;;5016961;28;20041;-63
2022/06/01 07:26:48;;;;;;;3.83;3.10;;;24.30;62.00;;;;;;5016440;28;20033;-65
2022/06/01 07:29:16;;;;;;;3.28;2.97;;;24.30;62.20;;;;;;5018758;28;20059;-63
2022/06/01 07:31:42;;;;;;;3.30;2.95;;;24.40;62.50;;;;;;5010999;28;20388;-64
2022/06/01 07:34:08;;;;;;;3.72;3.10;;;24.40;62.60;;;;;;5011113;28;20041;-64
2022/06/01 07:36:35;;;;;;;5.85;3.28;;;24.40;62.70;;;;;;5012667;28;20021;-65
2022/06/01 07:44:53;;;;;;;4.75;4.18;;;24.40;62.90;;;;;;5037172;28;20044;-64
2022/06/01 07:47:19;;;;;;;3.58;3.03;;;24.50;63.20;;;;;;5027866;28;20831;-65
2022/06/01 07:49:45;;;;;;;3.63;3.33;;;24.50;63.20;;;;;;5007424;28;20026;-65
2022/06/01 07:52:12;;;;;;;3.17;2.80;;;24.50;63.30;;;;;;5015396;28;20025;-67
2022/06/01 07:54:40;;;;;;;3.38;3.05;;;24.50;63.40;;;;;;5011523;28;20041;-67
2022/06/01 07:57:06;;;;;;;3.22;2.92;;;24.50;63.60;;;;;;5015986;28;20025;-67
2022/06/01 07:59:32;;;;;;;3.42;3.08;;;24.50;63.60;;;;;;5004809;28;20099;-66
2022/06/01 08:01:59;;;;;;;3.22;2.92;;;24.60;63.60;;;;;;5012645;28;20056;-66
2022/06/01 08:04:24;;;;;;;3.97;3.55;;;24.60;63.60;;;;;;5016901;28;20029;-67
2022/06/01 08:06:50;;;;;;;3.72;3.17;;;24.60;63.60;;;;;;5008131;28;20032;-67
2022/06/01 08:09:16;;;;;;;3.28;2.92;;;24.60;63.80;;;;;;5010226;28;20041;-67
2022/06/01 08:14:26;;;;;;;4.72;2.92;;;24.60;63.70;;;;;;5009493;28;20168;-65
2022/06/01 08:16:54;;;;;;;3.22;2.92;;;24.60;63.70;;;;;;5011216;28;20025;-66
2022/06/01 08:19:20;;;;;;;3.30;2.90;;;24.60;63.80;;;;;;5012036;28;20037;-66
2022/06/01 08:21:46;;;;;;;3.80;3.08;;;24.60;63.90;;;;;;5006443;28;20734;-65
2022/06/01 08:24:13;;;;;;;3.65;3.20;;;24.60;64.00;;;;;;5015573;28;20033;-66
2022/06/01 08:26:38;;;;;;;3.30;2.90;;;24.60;64.10;;;;;;5002094;28;20113;-65
2022/06/01 08:29:04;;;;;;;3.20;2.90;;;24.60;64.10;;;;;;5010687;28;20041;-64
2022/06/01 08:31:32;;;;;;;3.20;2.80;;;24.60;64.20;;;;;;4994828;28;20027;-65
2022/06/01 08:33:59;;;;;;;3.28;2.97;;;24.70;64.30;;;;;;5003157;28;20038;-65
2022/06/01 08:36:25;;;;;;;4.10;3.20;;;24.60;64.10;;;;;;5008670;28;21074;-65
2022/06/01 08:38:51;;;;;;;4.38;2.95;;;24.70;64.30;;;;;;4996150;28;20030;-65
2022/06/01 08:41:22;;;;;;;4.03;2.97;;;24.70;64.20;;;;;;4998838;28;20740;-66
2022/06/01 08:43:54;;;;;;;4.28;3.60;;;24.70;64.40;;;;;;4996320;28;20505;-65
2022/06/01 08:46:23;;;;;;;6.00;3.28;;;24.70;64.20;;;;;;5007076;28;20037;-65
2022/06/01 08:49:14;;;;;;;3.08;2.78;;;24.70;64.20;;;;;;4991858;28;20053;-64
2022/06/01 08:51:40;;;;;;;4.97;2.92;;;24.60;64.30;;;;;;5004370;28;20160;-66
2022/06/01 08:54:05;;;;;;;2.90;2.58;;;24.60;64.20;;;;;;5006843;28;20042;-66
2022/06/01 08:56:43;;;;;;;3.33;3.03;;;24.60;64.20;;;;;;5009735;28;20087;-65
2022/06/01 08:59:26;;;;;;;3.00;2.70;;;24.60;64.30;;;;;;5003439;28;20094;-65
2022/06/01 09:02:05;;;;;;;3.13;2.83;;;24.60;64.20;;;;;;4993913;28;20038;-65
2022/06/01 09:04:37;;;;;;;3.15;2.85;;;24.50;64.40;;;;;;5007715;28;20034;-64
2022/06/01 09:07:27;;;;;;;3.97;3.10;;;24.50;64.10;;;;;;4993998;28;20030;-64
2022/06/01 09:10:17;;;;;;;3.60;3.17;;;24.50;64.10;;;;;;5000207;28;20105;-65
2022/06/01 09:12:45;;;;;;;3.10;2.80;;;24.50;64.20;;;;;;4990418;28;23352;-65
2022/06/01 09:15:17;;;;;;;4.78;2.95;;;24.50;64.50;;;;;;4996908;28;20037;-65
2022/06/01 09:17:44;;;;;;;3.50;2.70;;;24.40;64.40;;;;;;4996090;28;20029;-65
2022/06/01 09:23:01;;;;;;;2.97;2.70;;;24.50;64.50;;;;;;5009528;28;20056;-65
2022/06/01 09:25:34;;;;;;;3.40;3.03;;;24.50;64.50;;;;;;5004476;28;20026;-65
2022/06/01 09:28:18;;;;;;;4.00;3.00;;;24.40;64.50;;;;;;5008886;28;20141;-65
2022/06/01 09:30:49;;;;;;;2.90;2.70;;;24.40;64.50;;;;;;5001519;28;20040;-66
2022/06/01 09:33:32;;;;;;;3.67;2.95;;;24.40;64.60;;;;;;4994536;28;20754;-66
2022/06/01 09:36:09;;;;;;;5.15;2.92;;;24.40;64.40;;;;;;5001356;28;20485;-65
2022/06/01 09:38:49;;;;;;;2.95;2.65;;;24.40;64.50;;;;;;5002399;28;20033;-64
2022/06/01 09:41:24;;;;;;;3.33;2.58;;;24.40;64.50;;;;;;5004496;28;20048;-65
2022/06/01 09:44:02;;;;;;;3.03;2.75;;;24.40;64.60;;;;;;5006068;28;20053;-65
2022/06/01 09:46:35;;;;;;;3.47;2.85;;;24.40;64.60;;;;;;5004526;28;20069;-65
2022/06/01 09:49:29;;;;;;;3.38;2.90;;;24.40;64.60;;;;;;5003695;28;20084;-65
2022/06/01 09:52:19;;;;;;;3.10;2.80;;;24.40;64.50;;;;;;5004134;28;23098;-64
2022/06/01 09:54:52;;;;;;;3.45;2.42;;;24.40;64.30;;;;;;5001041;28;20090;-64
2022/06/01 09:57:27;;;;;;;3.92;2.88;;;24.40;64.40;;;;;;5008886;28;20021;-65
2022/06/01 10:08:29;;;;;;;3.20;2.90;;;24.40;64.50;;;;;;5004588;28;20108;-65
2022/06/01 10:10:58;;;;;;;3.10;2.80;;;24.40;64.30;;;;;;5007223;28;20397;-65
2022/06/01 10:13:48;;;;;;;2.80;2.60;;;24.40;64.40;;;;;;5015719;28;20034;-65
2022/06/01 10:16:35;;;;;;;2.80;2.60;;;24.40;64.20;;;;;;5012673;28;20572;-65
2022/06/01 10:19:03;;;;;;;3.70;3.10;;;24.50;64.10;;;;;;5016417;28;20022;-64
2022/06/01 10:21:42;;;;;;;3.33;3.03;;;24.50;64.10;;;;;;5013688;28;20041;-65
2022/06/01 10:24:15;;;;;;;3.30;2.90;;;24.50;64.20;;;;;;5006368;28;20029;-64
2022/06/01 10:26:50;;;;;;;3.72;3.03;;;24.50;64.10;;;;;;5015434;28;20027;-64
2022/06/01 10:29:18;;;;;;;3.58;3.20;;;24.50;64.00;;;;;;5010089;28;20041;-65
2022/06/01 10:32:03;;;;;;;2.80;2.50;;;24.50;63.80;;;;;;5008038;28;20436;-64
2022/06/01 10:35:11;;;;;;;3.25;2.95;;;24.50;63.70;;;;;;5006869;28;20642;-64
2022/06/01 10:38:00;;;;;;;2.70;2.50;;;24.50;63.60;;;;;;5010742;28;20041;-65
2022/06/01 10:40:38;;;;;;;2.72;2.50;;;24.50;63.40;;;;;;5004682;28;20436;-65
2022/06/01 10:43:18;;;;;;;3.00;2.70;;;24.50;63.30;;;;;;5005121;28;20179;-67
2022/06/01 10:45:54;;;;;;;3.80;3.13;;;24.60;63.40;;;;;;5009587;28;20032;-66
2022/06/01 10:48:23;;;;;;;3.70;3.00;;;24.60;63.40;;;;;;5005909;28;20033;-66
2022/06/01 10:51:03;;;;;;;2.88;2.50;;;24.60;63.20;;;;;;5014870;28;20022;-65
2022/06/01 10:53:51;;;;;;;3.47;2.70;;;24.60;62.90;;;;;;5009355;28;20036;-66
2022/06/01 10:56:20;;;;;;;5.35;2.78;;;24.60;62.60;;;;;;5017217;28;20037;-66
2022/06/01 10:58:47;;;;;;;4.25;2.72;;;24.60;62.60;;;;;;5010475;28;20048;-65
2022/06/01 11:01:22;;;;;;;4.55;2.90;;;24.60;62.70;;;;;;5012024;28;20034;-65
2022/06/01 11:04:13;;;;;;;3.72;2.80;;;24.60;62.50;;;;;;5005760;28;20874;-66
2022/06/01 11:06:47;;;;;;;3.33;2.80;;;24.60;62.60;;;;;;4996718;28;20527;-66
2022/06/01 11:09:32;;;;;;;3.05;2.75;;;24.70;62.80;;;;;;5012571;28;20025;-66
2022/06/01 11:12:22;;;;;;;3.20;2.90;;;24.70;62.80;;;;;;5005459;28;20033;-66
2022/06/01 11:15:13;;;;;;;3.50;2.80;;;24.70;62.70;;;;;;5003842;28;20025;-65
2022/06/01 11:17:42;;;;;;;3.50;2.55;;;24.70;62.90;;;;;;5007408;28;20701;-65
2022/06/01 11:20:35;;;;;;;4.25;3.13;;;24.70;62.90;;;;;;4992642;28;20401;-65
2022/06/01 11:23:28;;;;;;;4.18;3.15;;;24.70;62.60;;;;;;5008153;28;20040;-65
2022/06/01 11:26:26;;;;;;;3.70;2.90;;;24.70;63.20;;;;;;5007847;28;20079;-65
2022/06/01 11:29:19;;;;;;;3.40;2.65;;;24.80;62.50;;;;;;5012579;28;20651;-65
2022/06/01 11:31:49;;;;;;;4.00;2.88;;;24.80;62.50;;;;;;5011182;28;20456;-65
2022/06/01 11:34:43;;;;;;;3.10;2.80;;;24.80;62.60;;;;;;5014578;28;20512;-66
2022/06/01 11:37:17;;;;;;;3.47;2.80;;;24.80;62.40;;;;;;5017486;28;20060;-65
2022/06/01 11:39:49;;;;;;;2.83;2.50;;;24.80;62.70;;;;;;5003086;28;20037;-65
2022/06/01 11:42:26;;;;;;;4.25;2.80;;;24.90;62.70;;;;;;5012750;28;20045;-65
2022/06/01 11:45:04;;;;;;;3.30;2.50;;;24.90;62.60;;;;;;5014701;28;20044;-66
2022/06/01 11:47:49;;;;;;;3.60;3.08;;;24.90;62.30;;;;;;5011026;28;20029;-65
2022/06/01 11:50:32;;;;;;;3.40;3.10;;;24.90;62.40;;;;;;5008770;28;20120;-65
2022/06/01 11:53:01;;;;;;;3.08;2.78;;;24.90;62.20;;;;;;5005642;28;20044;-64
2022/06/01 11:55:45;;;;;;;3.85;2.90;;;24.90;62.10;;;;;;5012891;28;20030;-65
2022/06/01 11:58:19;;;;;;;3.72;2.65;;;24.90;61.90;;;;;;5005010;28;20524;-65
2022/06/01 12:00:58;;;;;;;3.10;2.65;;;24.90;61.80;;;;;;5004690;28;20052;-64
2022/06/01 12:03:34;;;;;;;3.10;2.78;;;24.90;61.90;;;;;;4989849;28;20037;-65
2022/06/01 12:06:08;;;;;;;3.85;2.70;;;24.90;61.70;;;;;;5005081;28;21299;-65
2022/06/01 12:08:49;;;;;;;4.18;2.70;;;24.90;61.60;;;;;;5011621;28;20069;-65
2022/06/01 12:11:43;;;;;;;3.60;2.90;;;25.00;61.60;;;;;;5007685;28;20029;-66
2022/06/01 12:14:37;;;;;;;4.22;3.05;;;25.00;61.40;;;;;;5001236;28;20061;-66
2022/06/01 12:17:18;;;;;;;2.90;2.60;;;25.00;61.40;;;;;;5006814;28;20041;-66
2022/06/01 12:19:49;;;;;;;3.20;2.70;;;25.00;61.30;;;;;;5012608;28;20112;-65
2022/06/01 12:28:52;;;;;;;2.70;2.50;;;25.00;61.10;;;;;;5004278;28;20047;-65
2022/06/01 12:31:24;;;;;;;4.63;2.97;;;25.00;61.00;;;;;;5005562;28;20696;-65
2022/06/01 12:34:01;;;;;;;2.45;2.25;;;25.00;61.00;;;;;;5000626;28;20094;-65
2022/06/01 12:36:36;;;;;;;3.53;2.60;;;25.10;61.30;;;;;;5006006;28;20083;-66
2022/06/01 12:39:06;;;;;;;3.58;2.92;;;25.10;61.00;;;;;;5011226;28;20041;-66
2022/06/01 12:41:35;;;;;;;3.05;2.65;;;25.10;60.90;;;;;;4997276;28;20080;-65
2022/06/01 12:44:07;;;;;;;3.83;2.75;;;25.10;60.80;;;;;;5004452;28;20048;-66
2022/06/01 12:46:41;;;;;;;2.85;2.60;;;25.10;60.80;;;;;;5001660;28;20121;-65
2022/06/01 12:49:45;;;;;;;3.05;2.67;;;25.10;60.80;;;;;;4996091;28;20034;-65
2022/06/01 12:52:18;;;;;;;6.13;2.75;;;25.10;60.60;;;;;;5001521;28;20018;-65
2022/06/01 12:55:00;;;;;;;3.83;2.92;;;25.10;60.80;;;;;;5002843;28;20033;-65
2022/06/01 12:57:28;;;;;;;3.47;2.90;;;25.10;60.90;;;;;;4995327;28;20030;-65
2022/06/01 13:00:20;;;;;;;2.85;2.55;;;25.10;60.80;;;;;;5014440;28;20063;-65
2022/06/01 13:02:46;;;;;;;3.08;2.60;;;25.20;60.70;;;;;;5001891;28;20104;-65
2022/06/01 13:05:22;;;;;;;3.88;2.65;;;25.10;60.60;;;;;;4990579;28;20868;-65
2022/06/01 13:07:51;;;;;;;3.15;2.70;;;25.20;60.60;;;;;;4997236;28;20029;-65
2022/06/01 13:10:35;;;;;;;2.92;2.45;;;25.10;60.50;;;;;;5000948;28;20025;-65
2022/06/01 13:13:24;;;;;;;2.83;2.60;;;25.10;60.30;;;;;;5010170;28;20041;-64
2022/06/01 13:16:02;;;;;;;4.18;2.65;;;25.10;60.30;;;;;;5010334;28;20040;-65
2022/06/01 13:18:35;;;;;;;2.67;2.47;;;25.20;60.40;;;;;;5001889;28;20032;-66
2022/06/01 13:21:08;;;;;;;2.90;2.63;;;25.10;60.30;;;;;;4995961;28;20032;-66
2022/06/01 13:23:56;;;;;;;3.10;2.50;;;25.20;60.30;;;;;;5002659;28;20026;-66
2022/06/01 13:26:31;;;;;;;2.92;2.63;;;25.10;60.20;;;;;;4997386;28;20046;-65
2022/06/01 13:29:15;;;;;;;3.53;2.90;;;25.20;60.40;;;;;;5002124;28;20032;-65
2022/06/01 13:31:43;;;;;;;2.95;2.40;;;25.20;60.00;;;;;;5006947;28;20065;-65
2022/06/01 13:34:20;;;;;;;3.47;2.42;;;25.20;60.00;;;;;;5000364;28;20037;-65
2022/06/01 13:36:48;;;;;;;2.67;2.45;;;25.20;60.00;;;;;;5008059;28;20430;-65
2022/06/01 13:39:15;;;;;;;3.40;2.55;;;25.10;59.90;;;;;;5000115;28;20160;-65
2022/06/01 13:42:03;;;;;;;3.08;2.50;;;25.20;59.90;;;;;;5017512;28;20024;-65